sensor_id;sensor_type;location;lat;lon;timestamp;P1;durP1;ratioP1;P2;durP2;ratioP2
4460;SDS011;2243;48.812;9.232;2022-09-09T00:05:04;11.93;;;4.13;;
4460;SDS011;2243;48.812;9.232;2022-09-09T00:16:20;10.47;;;3.50;;
4460;SDS011;2243;48.812;9.232;2022-09-09T00:22:17;4.93;;;3.57;;
4460;SDS011;2243;48.812;9.232;2022-09-09T00:24:51;9.37;;;4.20;;
4460;SDS011;2243;48.812;9.232;2022-09-09T00:30:19;4.67;;;3.37;;
4460;SDS011;2243;48.812;9.232;2022-09-09T00:32:55;7.40;;;4.60;;
4460;SDS011;2243;48.812;9.232;2022-09-09T00:35:50;4.37;;;3.30;;
4460;SDS011;2243;48.812;9.232;2022-09-09T00:38:27;5.17;;;3.67;;
4460;SDS011;2243;48.812;9.232;2022-09-09T00:44:32;4.23;;;3.80;;
4460;SDS011;2243;48.812;9.232;2022-09-09T00:47:23;4.83;;;3.87;;
4460;SDS011;2243;48.812;9.232;2022-09-09T00:55:48;2.90;;;2.70;;
4460;SDS011;2243;48.812;9.232;2022-09-09T00:58:59;3.60;;;2.60;;
4460;SDS011;2243;48.812;9.232;2022-09-09T01:01:40;8.57;;;3.40;;
4460;SDS011;2243;48.812;9.232;2022-09-09T01:04:16;6.47;;;3.60;;
4460;SDS011;2243;48.812;9.232;2022-09-09T01:07:03;5.80;;;2.73;;
4460;SDS011;2243;48.812;9.232;2022-09-09T01:09:54;22.13;;;3.30;;
4460;SDS011;2243;48.812;9.232;2022-09-09T01:12:38;6.80;;;2.80;;
4460;SDS011;2243;48.812;9.232;2022-09-09T01:15:13;3.20;;;3.00;;
4460;SDS011;2243;48.812;9.232;2022-09-09T01:17:57;5.60;;;2.80;;
4460;SDS011;2243;48.812;9.232;2022-09-09T01:29:15;6.10;;;2.20;;
4460;SDS011;2243;48.812;9.232;2022-09-09T01:31:52;5.60;;;2.20;;
4460;SDS011;2243;48.812;9.232;2022-09-09T01:34:33;4.30;;;1.97;;
4460;SDS011;2243;48.812;9.232;2022-09-09T01:37:10;9.13;;;2.70;;
4460;SDS011;2243;48.812;9.232;2022-09-09T01:39:43;2.03;;;1.93;;
4460;SDS011;2243;48.812;9.232;2022-09-09T01:42:15;2.20;;;1.60;;
4460;SDS011;2243;48.812;9.232;2022-09-09T01:44:47;2.13;;;1.87;;
4460;SDS011;2243;48.812;9.232;2022-09-09T01:47:18;2.20;;;2.00;;
4460;SDS011;2243;48.812;9.232;2022-09-09T01:49:49;2.80;;;1.83;;
4460;SDS011;2243;48.812;9.232;2022-09-09T01:52:20;11.00;;;2.40;;
4460;SDS011;2243;48.812;9.232;2022-09-09T01:54:51;2.93;;;1.90;;
4460;SDS011;2243;48.812;9.232;2022-09-09T02:00:10;4.53;;;1.77;;
4460;SDS011;2243;48.812;9.232;2022-09-09T02:05:38;2.43;;;1.63;;
4460;SDS011;2243;48.812;9.232;2022-09-09T02:08:40;9.70;;;2.03;;
4460;SDS011;2243;48.812;9.232;2022-09-09T02:11:18;3.03;;;1.90;;
4460;SDS011;2243;48.812;9.232;2022-09-09T02:13:57;10.37;;;1.80;;
4460;SDS011;2243;48.812;9.232;2022-09-09T02:16:54;10.63;;;2.27;;
4460;SDS011;2243;48.812;9.232;2022-09-09T02:19:49;1.93;;;1.83;;
4460;SDS011;2243;48.812;9.232;2022-09-09T02:22:28;3.80;;;2.23;;
4460;SDS011;2243;48.812;9.232;2022-09-09T02:25:02;2.57;;;2.37;;
4460;SDS011;2243;48.812;9.232;2022-09-09T02:27:37;2.40;;;2.17;;
4460;SDS011;2243;48.812;9.232;2022-09-09T02:30:10;3.90;;;2.43;;
4460;SDS011;2243;48.812;9.232;2022-09-09T02:32:42;4.03;;;2.33;;
4460;SDS011;2243;48.812;9.232;2022-09-09T02:35:20;7.13;;;2.27;;
4460;SDS011;2243;48.812;9.232;2022-09-09T02:37:55;11.10;;;2.50;;
4460;SDS011;2243;48.812;9.232;2022-09-09T02:40:31;3.60;;;2.50;;
4460;SDS011;2243;48.812;9.232;2022-09-09T02:43:02;2.40;;;2.23;;
4460;SDS011;2243;48.812;9.232;2022-09-09T02:45:36;3.53;;;2.47;;
4460;SDS011;2243;48.812;9.232;2022-09-09T02:48:24;3.57;;;2.57;;
4460;SDS011;2243;48.812;9.232;2022-09-09T02:51:10;2.10;;;2.00;;
4460;SDS011;2243;48.812;9.232;2022-09-09T02:54:34;2.47;;;2.20;;
4460;SDS011;2243;48.812;9.232;2022-09-09T02:59:51;4.73;;;2.57;;
4460;SDS011;2243;48.812;9.232;2022-09-09T03:02:22;4.57;;;2.40;;
4460;SDS011;2243;48.812;9.232;2022-09-09T03:04:54;6.03;;;2.47;;
4460;SDS011;2243;48.812;9.232;2022-09-09T03:07:25;3.50;;;2.30;;
4460;SDS011;2243;48.812;9.232;2022-09-09T03:09:57;3.80;;;2.30;;
4460;SDS011;2243;48.812;9.232;2022-09-09T03:12:28;2.87;;;2.67;;
4460;SDS011;2243;48.812;9.232;2022-09-09T03:14:59;2.47;;;2.27;;
4460;SDS011;2243;48.812;9.232;2022-09-09T03:17:30;3.17;;;2.30;;
4460;SDS011;2243;48.812;9.232;2022-09-09T03:20:04;4.00;;;2.10;;
4460;SDS011;2243;48.812;9.232;2022-09-09T03:22:35;1.70;;;1.60;;
4460;SDS011;2243;48.812;9.232;2022-09-09T03:25:06;4.00;;;2.03;;
4460;SDS011;2243;48.812;9.232;2022-09-09T03:27:38;2.47;;;2.33;;
4460;SDS011;2243;48.812;9.232;2022-09-09T03:30:09;6.77;;;3.40;;
4460;SDS011;2243;48.812;9.232;2022-09-09T03:32:41;4.53;;;3.40;;
4460;SDS011;2243;48.812;9.232;2022-09-09T03:35:18;12.13;;;4.40;;
4460;SDS011;2243;48.812;9.232;2022-09-09T03:37:49;3.93;;;3.53;;
4460;SDS011;2243;48.812;9.232;2022-09-09T03:40:20;5.10;;;4.47;;
4460;SDS011;2243;48.812;9.232;2022-09-09T03:42:51;4.97;;;2.60;;
4460;SDS011;2243;48.812;9.232;2022-09-09T03:45:23;3.07;;;2.30;;
4460;SDS011;2243;48.812;9.232;2022-09-09T03:47:54;2.73;;;2.53;;
4460;SDS011;2243;48.812;9.232;2022-09-09T03:50:27;3.10;;;2.90;;
4460;SDS011;2243;48.812;9.232;2022-09-09T03:52:58;4.77;;;2.40;;
4460;SDS011;2243;48.812;9.232;2022-09-09T03:55:29;4.00;;;2.70;;
4460;SDS011;2243;48.812;9.232;2022-09-09T03:57:59;4.63;;;2.20;;
4460;SDS011;2243;48.812;9.232;2022-09-09T04:00:30;3.13;;;2.10;;
4460;SDS011;2243;48.812;9.232;2022-09-09T04:03:02;3.40;;;2.87;;
4460;SDS011;2243;48.812;9.232;2022-09-09T04:05:33;2.73;;;2.53;;
4460;SDS011;2243;48.812;9.232;2022-09-09T04:08:04;2.43;;;2.20;;
4460;SDS011;2243;48.812;9.232;2022-09-09T04:10:36;2.20;;;2.10;;
4460;SDS011;2243;48.812;9.232;2022-09-09T04:13:07;2.83;;;2.50;;
4460;SDS011;2243;48.812;9.232;2022-09-09T04:15:38;3.77;;;2.30;;
4460;SDS011;2243;48.812;9.232;2022-09-09T04:18:09;3.10;;;2.10;;
4460;SDS011;2243;48.812;9.232;2022-09-09T04:20:48;8.90;;;2.37;;
4460;SDS011;2243;48.812;9.232;2022-09-09T04:23:20;2.50;;;1.77;;
4460;SDS011;2243;48.812;9.232;2022-09-09T04:25:53;2.30;;;2.10;;
4460;SDS011;2243;48.812;9.232;2022-09-09T04:28:27;8.60;;;2.10;;
4460;SDS011;2243;48.812;9.232;2022-09-09T04:31:05;1.93;;;1.73;;
4460;SDS011;2243;48.812;9.232;2022-09-09T04:33:43;2.57;;;1.87;;
4460;SDS011;2243;48.812;9.232;2022-09-09T04:36:15;2.40;;;1.60;;
4460;SDS011;2243;48.812;9.232;2022-09-09T04:38:48;2.70;;;2.40;;
4460;SDS011;2243;48.812;9.232;2022-09-09T04:41:19;1.60;;;1.50;;
4460;SDS011;2243;48.812;9.232;2022-09-09T04:43:51;3.13;;;2.10;;
4460;SDS011;2243;48.812;9.232;2022-09-09T04:46:23;2.00;;;1.90;;
4460;SDS011;2243;48.812;9.232;2022-09-09T04:48:55;2.10;;;2.00;;
4460;SDS011;2243;48.812;9.232;2022-09-09T04:51:26;2.57;;;2.37;;
4460;SDS011;2243;48.812;9.232;2022-09-09T04:53:57;2.50;;;2.30;;
4460;SDS011;2243;48.812;9.232;2022-09-09T04:56:28;3.53;;;1.90;;
4460;SDS011;2243;48.812;9.232;2022-09-09T04:58:59;2.03;;;1.80;;
4460;SDS011;2243;48.812;9.232;2022-09-09T05:01:30;3.47;;;1.50;;
4460;SDS011;2243;48.812;9.232;2022-09-09T05:04:02;2.97;;;2.40;;
4460;SDS011;2243;48.812;9.232;2022-09-09T05:06:33;5.07;;;2.20;;
4460;SDS011;2243;48.812;9.232;2022-09-09T05:09:06;4.97;;;2.10;;
4460;SDS011;2243;48.812;9.232;2022-09-09T05:11:37;10.10;;;2.33;;
4460;SDS011;2243;48.812;9.232;2022-09-09T05:14:08;1.93;;;1.83;;
4460;SDS011;2243;48.812;9.232;2022-09-09T05:16:41;7.10;;;2.73;;
4460;SDS011;2243;48.812;9.232;2022-09-09T05:19:14;5.57;;;2.13;;
4460;SDS011;2243;48.812;9.232;2022-09-09T05:21:45;4.40;;;1.90;;
4460;SDS011;2243;48.812;9.232;2022-09-09T05:24:16;7.03;;;2.00;;
4460;SDS011;2243;48.812;9.232;2022-09-09T05:26:47;2.97;;;2.10;;
4460;SDS011;2243;48.812;9.232;2022-09-09T05:29:18;2.50;;;2.17;;
4460;SDS011;2243;48.812;9.232;2022-09-09T05:31:49;5.43;;;2.27;;
4460;SDS011;2243;48.812;9.232;2022-09-09T05:34:20;4.17;;;2.30;;
4460;SDS011;2243;48.812;9.232;2022-09-09T05:36:51;7.03;;;2.30;;
4460;SDS011;2243;48.812;9.232;2022-09-09T05:39:22;6.60;;;2.20;;
4460;SDS011;2243;48.812;9.232;2022-09-09T05:41:53;2.80;;;2.10;;
4460;SDS011;2243;48.812;9.232;2022-09-09T05:44:25;5.00;;;2.20;;
4460;SDS011;2243;48.812;9.232;2022-09-09T05:46:57;15.13;;;2.43;;
4460;SDS011;2243;48.812;9.232;2022-09-09T05:49:28;4.67;;;2.27;;
4460;SDS011;2243;48.812;9.232;2022-09-09T05:51:59;5.67;;;2.30;;
4460;SDS011;2243;48.812;9.232;2022-09-09T05:54:36;2.50;;;2.03;;
4460;SDS011;2243;48.812;9.232;2022-09-09T05:57:08;3.60;;;1.97;;
4460;SDS011;2243;48.812;9.232;2022-09-09T05:59:39;2.97;;;2.07;;
4460;SDS011;2243;48.812;9.232;2022-09-09T06:02:10;8.27;;;2.30;;
4460;SDS011;2243;48.812;9.232;2022-09-09T06:04:42;4.63;;;2.73;;
4460;SDS011;2243;48.812;9.232;2022-09-09T06:07:13;2.80;;;2.03;;
4460;SDS011;2243;48.812;9.232;2022-09-09T06:09:44;1.60;;;1.50;;
4460;SDS011;2243;48.812;9.232;2022-09-09T06:12:15;3.50;;;1.83;;
4460;SDS011;2243;48.812;9.232;2022-09-09T06:14:46;5.50;;;1.77;;
4460;SDS011;2243;48.812;9.232;2022-09-09T06:17:17;1.97;;;1.60;;
4460;SDS011;2243;48.812;9.232;2022-09-09T06:19:48;2.00;;;1.80;;
4460;SDS011;2243;48.812;9.232;2022-09-09T06:22:19;3.43;;;1.90;;
4460;SDS011;2243;48.812;9.232;2022-09-09T06:24:50;2.70;;;2.17;;
4460;SDS011;2243;48.812;9.232;2022-09-09T06:27:21;2.43;;;1.90;;
4460;SDS011;2243;48.812;9.232;2022-09-09T06:29:52;2.20;;;1.83;;
4460;SDS011;2243;48.812;9.232;2022-09-09T06:32:23;2.20;;;1.80;;
4460;SDS011;2243;48.812;9.232;2022-09-09T06:34:55;3.50;;;1.90;;
4460;SDS011;2243;48.812;9.232;2022-09-09T06:37:25;4.40;;;2.00;;
4460;SDS011;2243;48.812;9.232;2022-09-09T06:39:57;3.93;;;2.23;;
4460;SDS011;2243;48.812;9.232;2022-09-09T06:42:28;4.70;;;1.87;;
4460;SDS011;2243;48.812;9.232;2022-09-09T06:44:59;4.30;;;2.37;;
4460;SDS011;2243;48.812;9.232;2022-09-09T06:47:30;4.93;;;2.80;;
4460;SDS011;2243;48.812;9.232;2022-09-09T06:50:01;7.33;;;2.10;;
4460;SDS011;2243;48.812;9.232;2022-09-09T06:52:32;2.70;;;2.40;;
4460;SDS011;2243;48.812;9.232;2022-09-09T06:55:03;3.07;;;1.80;;
4460;SDS011;2243;48.812;9.232;2022-09-09T06:57:35;3.03;;;1.97;;
4460;SDS011;2243;48.812;9.232;2022-09-09T07:00:07;5.80;;;2.50;;
4460;SDS011;2243;48.812;9.232;2022-09-09T07:02:38;3.63;;;2.07;;
4460;SDS011;2243;48.812;9.232;2022-09-09T07:05:11;3.63;;;1.63;;
4460;SDS011;2243;48.812;9.232;2022-09-09T07:07:42;2.27;;;2.07;;
4460;SDS011;2243;48.812;9.232;2022-09-09T07:10:13;2.63;;;2.20;;
4460;SDS011;2243;48.812;9.232;2022-09-09T07:12:44;3.83;;;2.40;;
4460;SDS011;2243;48.812;9.232;2022-09-09T07:15:14;2.43;;;2.20;;
4460;SDS011;2243;48.812;9.232;2022-09-09T07:17:45;7.70;;;1.83;;
4460;SDS011;2243;48.812;9.232;2022-09-09T07:20:16;2.00;;;1.87;;
4460;SDS011;2243;48.812;9.232;2022-09-09T07:22:47;8.33;;;1.67;;
4460;SDS011;2243;48.812;9.232;2022-09-09T07:25:18;10.50;;;2.03;;
4460;SDS011;2243;48.812;9.232;2022-09-09T07:27:51;4.67;;;2.00;;
4460;SDS011;2243;48.812;9.232;2022-09-09T07:30:26;2.00;;;1.90;;
4460;SDS011;2243;48.812;9.232;2022-09-09T07:32:59;5.10;;;2.27;;
4460;SDS011;2243;48.812;9.232;2022-09-09T07:35:29;4.53;;;2.20;;
4460;SDS011;2243;48.812;9.232;2022-09-09T07:38:00;2.13;;;2.00;;
4460;SDS011;2243;48.812;9.232;2022-09-09T07:40:32;3.40;;;2.53;;
4460;SDS011;2243;48.812;9.232;2022-09-09T07:43:04;4.20;;;2.63;;
4460;SDS011;2243;48.812;9.232;2022-09-09T07:45:35;2.20;;;2.00;;
4460;SDS011;2243;48.812;9.232;2022-09-09T07:48:06;6.73;;;1.90;;
4460;SDS011;2243;48.812;9.232;2022-09-09T07:50:36;4.70;;;1.93;;
4460;SDS011;2243;48.812;9.232;2022-09-09T07:53:07;2.40;;;2.20;;
4460;SDS011;2243;48.812;9.232;2022-09-09T07:55:38;2.20;;;1.90;;
4460;SDS011;2243;48.812;9.232;2022-09-09T07:58:09;3.90;;;1.93;;
4460;SDS011;2243;48.812;9.232;2022-09-09T08:00:40;7.50;;;2.00;;
4460;SDS011;2243;48.812;9.232;2022-09-09T08:03:13;5.60;;;2.20;;
4460;SDS011;2243;48.812;9.232;2022-09-09T08:05:44;5.70;;;2.10;;
4460;SDS011;2243;48.812;9.232;2022-09-09T08:08:15;4.63;;;2.17;;
4460;SDS011;2243;48.812;9.232;2022-09-09T08:10:46;16.13;;;2.27;;
4460;SDS011;2243;48.812;9.232;2022-09-09T08:13:17;2.83;;;2.17;;
4460;SDS011;2243;48.812;9.232;2022-09-09T08:15:48;2.40;;;1.93;;
4460;SDS011;2243;48.812;9.232;2022-09-09T08:18:20;3.53;;;1.90;;
4460;SDS011;2243;48.812;9.232;2022-09-09T08:20:52;5.50;;;2.10;;
4460;SDS011;2243;48.812;9.232;2022-09-09T08:23:23;2.90;;;1.90;;
4460;SDS011;2243;48.812;9.232;2022-09-09T08:25:55;4.13;;;1.47;;
4460;SDS011;2243;48.812;9.232;2022-09-09T08:28:33;5.40;;;1.70;;
4460;SDS011;2243;48.812;9.232;2022-09-09T08:31:05;6.27;;;1.80;;
4460;SDS011;2243;48.812;9.232;2022-09-09T08:33:45;2.10;;;1.90;;
4460;SDS011;2243;48.812;9.232;2022-09-09T08:36:17;4.17;;;1.50;;
4460;SDS011;2243;48.812;9.232;2022-09-09T08:38:53;1.77;;;1.30;;
4460;SDS011;2243;48.812;9.232;2022-09-09T08:41:37;1.83;;;1.43;;
4460;SDS011;2243;48.812;9.232;2022-09-09T08:53:02;4.07;;;1.30;;
4460;SDS011;2243;48.812;9.232;2022-09-09T08:55:51;3.57;;;1.30;;
4460;SDS011;2243;48.812;9.232;2022-09-09T08:58:26;1.40;;;1.30;;
4460;SDS011;2243;48.812;9.232;2022-09-09T09:10:31;0.90;;;0.90;;
4460;SDS011;2243;48.812;9.232;2022-09-09T09:13:13;5.27;;;1.50;;
4460;SDS011;2243;48.812;9.232;2022-09-09T09:16:02;2.10;;;0.83;;
4460;SDS011;2243;48.812;9.232;2022-09-09T09:18:44;4.33;;;1.40;;
4460;SDS011;2243;48.812;9.232;2022-09-09T09:21:19;2.40;;;1.23;;
4460;SDS011;2243;48.812;9.232;2022-09-09T09:23:59;3.10;;;1.30;;
4460;SDS011;2243;48.812;9.232;2022-09-09T09:26:33;7.43;;;1.70;;
4460;SDS011;2243;48.812;9.232;2022-09-09T09:29:10;1.67;;;1.07;;
4460;SDS011;2243;48.812;9.232;2022-09-09T09:31:51;4.77;;;1.10;;
4460;SDS011;2243;48.812;9.232;2022-09-09T09:34:25;3.53;;;1.10;;
4460;SDS011;2243;48.812;9.232;2022-09-09T09:36:56;3.00;;;1.20;;
4460;SDS011;2243;48.812;9.232;2022-09-09T09:39:32;1.37;;;1.27;;
4460;SDS011;2243;48.812;9.232;2022-09-09T09:42:28;7.37;;;1.07;;
4460;SDS011;2243;48.812;9.232;2022-09-09T09:45:16;4.43;;;1.10;;
4460;SDS011;2243;48.812;9.232;2022-09-09T09:48:27;1.30;;;0.90;;
4460;SDS011;2243;48.812;9.232;2022-09-09T09:50:55;1.10;;;0.80;;
4460;SDS011;2243;48.812;9.232;2022-09-09T09:53:31;0.97;;;0.80;;
4460;SDS011;2243;48.812;9.232;2022-09-09T09:56:05;1.73;;;0.80;;
4460;SDS011;2243;48.812;9.232;2022-09-09T10:04:22;0.80;;;0.80;;
4460;SDS011;2243;48.812;9.232;2022-09-09T10:06:53;2.10;;;1.03;;
4460;SDS011;2243;48.812;9.232;2022-09-09T10:09:29;1.20;;;1.03;;
4460;SDS011;2243;48.812;9.232;2022-09-09T10:36:16;1.97;;;1.30;;
4460;SDS011;2243;48.812;9.232;2022-09-09T10:38:52;3.23;;;1.30;;
4460;SDS011;2243;48.812;9.232;2022-09-09T10:47:56;2.03;;;1.20;;
4460;SDS011;2243;48.812;9.232;2022-09-09T10:51:13;5.33;;;1.27;;
4460;SDS011;2243;48.812;9.232;2022-09-09T10:54:07;1.30;;;1.10;;
4460;SDS011;2243;48.812;9.232;2022-09-09T10:57:00;1.77;;;1.30;;
4460;SDS011;2243;48.812;9.232;2022-09-09T10:59:42;2.97;;;1.20;;
4460;SDS011;2243;48.812;9.232;2022-09-09T11:02:21;3.63;;;1.10;;
4460;SDS011;2243;48.812;9.232;2022-09-09T11:05:06;3.13;;;1.00;;
4460;SDS011;2243;48.812;9.232;2022-09-09T11:07:51;1.40;;;1.07;;
4460;SDS011;2243;48.812;9.232;2022-09-09T11:10:41;1.97;;;1.00;;
4460;SDS011;2243;48.812;9.232;2022-09-09T11:19:39;1.40;;;1.30;;
4460;SDS011;2243;48.812;9.232;2022-09-09T11:24:51;1.97;;;0.90;;
4460;SDS011;2243;48.812;9.232;2022-09-09T11:36:56;1.43;;;0.70;;
4460;SDS011;2243;48.812;9.232;2022-09-09T11:42:36;4.67;;;1.17;;
4460;SDS011;2243;48.812;9.232;2022-09-09T11:45:15;2.03;;;1.07;;
4460;SDS011;2243;48.812;9.232;2022-09-09T11:47:54;2.50;;;0.90;;
4460;SDS011;2243;48.812;9.232;2022-09-09T11:50:36;1.73;;;1.20;;
4460;SDS011;2243;48.812;9.232;2022-09-09T11:56:03;1.43;;;0.70;;
4460;SDS011;2243;48.812;9.232;2022-09-09T11:58:40;2.67;;;0.80;;
4460;SDS011;2243;48.812;9.232;2022-09-09T12:01:26;1.77;;;0.80;;
4460;SDS011;2243;48.812;9.232;2022-09-09T12:06:56;1.47;;;0.70;;
4460;SDS011;2243;48.812;9.232;2022-09-09T12:09:43;5.27;;;0.77;;
4460;SDS011;2243;48.812;9.232;2022-09-09T12:13:35;1.77;;;0.73;;
4460;SDS011;2243;48.812;9.232;2022-09-09T12:15:59;4.03;;;0.50;;
4460;SDS011;2243;48.812;9.232;2022-09-09T12:24:08;0.60;;;0.60;;
4460;SDS011;2243;48.812;9.232;2022-09-09T12:27:16;0.87;;;0.70;;
4460;SDS011;2243;48.812;9.232;2022-09-09T12:29:58;1.33;;;0.87;;
4460;SDS011;2243;48.812;9.232;2022-09-09T12:32:38;0.70;;;0.50;;
4460;SDS011;2243;48.812;9.232;2022-09-09T12:35:10;1.47;;;0.60;;
4460;SDS011;2243;48.812;9.232;2022-09-09T12:37:58;1.00;;;0.50;;
4460;SDS011;2243;48.812;9.232;2022-09-09T12:40:33;0.60;;;0.60;;
4460;SDS011;2243;48.812;9.232;2022-09-09T12:43:17;1.27;;;0.70;;
4460;SDS011;2243;48.812;9.232;2022-09-09T12:45:52;1.47;;;0.77;;
4460;SDS011;2243;48.812;9.232;2022-09-09T12:48:35;2.20;;;0.63;;
4460;SDS011;2243;48.812;9.232;2022-09-09T12:51:44;2.27;;;0.70;;
4460;SDS011;2243;48.812;9.232;2022-09-09T12:54:12;2.80;;;0.70;;
4460;SDS011;2243;48.812;9.232;2022-09-09T12:56:45;0.80;;;0.60;;
4460;SDS011;2243;48.812;9.232;2022-09-09T12:59:22;0.70;;;0.70;;
4460;SDS011;2243;48.812;9.232;2022-09-09T13:01:57;1.10;;;0.70;;
4460;SDS011;2243;48.812;9.232;2022-09-09T13:04:29;0.70;;;0.60;;
4460;SDS011;2243;48.812;9.232;2022-09-09T13:07:09;0.60;;;0.50;;
4460;SDS011;2243;48.812;9.232;2022-09-09T13:09:42;1.60;;;0.77;;
4460;SDS011;2243;48.812;9.232;2022-09-09T13:12:19;1.43;;;0.70;;
4460;SDS011;2243;48.812;9.232;2022-09-09T13:14:53;1.10;;;1.00;;
4460;SDS011;2243;48.812;9.232;2022-09-09T13:17:26;1.37;;;0.60;;
4460;SDS011;2243;48.812;9.232;2022-09-09T13:20:01;1.57;;;0.97;;
4460;SDS011;2243;48.812;9.232;2022-09-09T13:22:36;1.90;;;0.93;;
4460;SDS011;2243;48.812;9.232;2022-09-09T13:27:41;1.03;;;0.77;;
4460;SDS011;2243;48.812;9.232;2022-09-09T13:30:34;0.97;;;0.80;;
4460;SDS011;2243;48.812;9.232;2022-09-09T13:38:24;3.13;;;0.97;;
4460;SDS011;2243;48.812;9.232;2022-09-09T13:41:08;5.40;;;0.90;;
4460;SDS011;2243;48.812;9.232;2022-09-09T13:43:44;1.43;;;0.97;;
4460;SDS011;2243;48.812;9.232;2022-09-09T13:51:43;1.13;;;0.80;;
4460;SDS011;2243;48.812;9.232;2022-09-09T13:54:20;3.93;;;1.10;;
4460;SDS011;2243;48.812;9.232;2022-09-09T13:56:52;4.33;;;0.80;;
4460;SDS011;2243;48.812;9.232;2022-09-09T13:59:23;3.40;;;1.20;;
4460;SDS011;2243;48.812;9.232;2022-09-09T14:02:16;2.40;;;1.23;;
4460;SDS011;2243;48.812;9.232;2022-09-09T14:04:47;1.00;;;0.97;;
4460;SDS011;2243;48.812;9.232;2022-09-09T14:07:20;1.53;;;0.80;;
4460;SDS011;2243;48.812;9.232;2022-09-09T14:09:52;2.77;;;0.80;;
4460;SDS011;2243;48.812;9.232;2022-09-09T14:12:23;5.37;;;0.90;;
4460;SDS011;2243;48.812;9.232;2022-09-09T14:14:54;0.80;;;0.70;;
4460;SDS011;2243;48.812;9.232;2022-09-09T14:17:25;2.30;;;2.10;;
4460;SDS011;2243;48.812;9.232;2022-09-09T14:19:59;0.70;;;0.70;;
4460;SDS011;2243;48.812;9.232;2022-09-09T14:22:30;1.10;;;0.80;;
4460;SDS011;2243;48.812;9.232;2022-09-09T14:25:01;2.57;;;0.73;;
4460;SDS011;2243;48.812;9.232;2022-09-09T14:27:32;1.10;;;0.60;;
4460;SDS011;2243;48.812;9.232;2022-09-09T14:30:03;1.10;;;0.60;;
4460;SDS011;2243;48.812;9.232;2022-09-09T14:32:35;0.90;;;0.50;;
4460;SDS011;2243;48.812;9.232;2022-09-09T14:35:06;2.17;;;0.90;;
4460;SDS011;2243;48.812;9.232;2022-09-09T14:37:38;2.10;;;0.60;;
4460;SDS011;2243;48.812;9.232;2022-09-09T14:40:09;1.00;;;0.63;;
4460;SDS011;2243;48.812;9.232;2022-09-09T14:42:41;1.30;;;0.60;;
4460;SDS011;2243;48.812;9.232;2022-09-09T14:45:12;1.63;;;0.60;;
4460;SDS011;2243;48.812;9.232;2022-09-09T14:47:43;1.30;;;0.60;;
4460;SDS011;2243;48.812;9.232;2022-09-09T14:50:14;1.10;;;0.60;;
4460;SDS011;2243;48.812;9.232;2022-09-09T14:52:45;2.00;;;0.80;;
4460;SDS011;2243;48.812;9.232;2022-09-09T14:55:16;1.47;;;0.60;;
4460;SDS011;2243;48.812;9.232;2022-09-09T14:57:47;0.60;;;0.50;;
4460;SDS011;2243;48.812;9.232;2022-09-09T15:00:19;3.50;;;0.60;;
4460;SDS011;2243;48.812;9.232;2022-09-09T15:02:53;0.70;;;0.67;;
4460;SDS011;2243;48.812;9.232;2022-09-09T15:05:25;2.37;;;0.70;;
4460;SDS011;2243;48.812;9.232;2022-09-09T15:07:56;5.10;;;0.80;;
4460;SDS011;2243;48.812;9.232;2022-09-09T15:10:27;0.90;;;0.70;;
4460;SDS011;2243;48.812;9.232;2022-09-09T15:13:01;3.10;;;0.60;;
4460;SDS011;2243;48.812;9.232;2022-09-09T15:15:32;1.10;;;0.60;;
4460;SDS011;2243;48.812;9.232;2022-09-09T15:18:04;1.43;;;0.60;;
4460;SDS011;2243;48.812;9.232;2022-09-09T15:20:35;2.20;;;0.70;;
4460;SDS011;2243;48.812;9.232;2022-09-09T15:23:09;1.90;;;0.77;;
4460;SDS011;2243;48.812;9.232;2022-09-09T15:25:50;1.00;;;0.60;;
4460;SDS011;2243;48.812;9.232;2022-09-09T15:28:26;0.80;;;0.70;;
4460;SDS011;2243;48.812;9.232;2022-09-09T15:30:57;1.30;;;1.10;;
4460;SDS011;2243;48.812;9.232;2022-09-09T15:33:29;3.13;;;1.13;;
4460;SDS011;2243;48.812;9.232;2022-09-09T15:36:01;2.03;;;1.03;;
4460;SDS011;2243;48.812;9.232;2022-09-09T15:38:43;2.60;;;0.90;;
4460;SDS011;2243;48.812;9.232;2022-09-09T15:41:15;0.90;;;0.80;;
4460;SDS011;2243;48.812;9.232;2022-09-09T15:43:48;1.50;;;1.17;;
4460;SDS011;2243;48.812;9.232;2022-09-09T15:51:46;2.00;;;1.20;;
4460;SDS011;2243;48.812;9.232;2022-09-09T15:54:22;1.93;;;0.80;;
4460;SDS011;2243;48.812;9.232;2022-09-09T15:56:56;1.00;;;0.70;;
4460;SDS011;2243;48.812;9.232;2022-09-09T15:59:30;1.13;;;1.00;;
4460;SDS011;2243;48.812;9.232;2022-09-09T16:02:02;0.97;;;0.77;;
4460;SDS011;2243;48.812;9.232;2022-09-09T16:04:35;1.67;;;0.80;;
4460;SDS011;2243;48.812;9.232;2022-09-09T16:07:06;0.60;;;0.60;;
4460;SDS011;2243;48.812;9.232;2022-09-09T16:09:37;1.17;;;0.73;;
4460;SDS011;2243;48.812;9.232;2022-09-09T16:12:08;2.60;;;0.80;;
4460;SDS011;2243;48.812;9.232;2022-09-09T16:14:43;1.77;;;0.80;;
4460;SDS011;2243;48.812;9.232;2022-09-09T16:17:15;1.20;;;0.90;;
4460;SDS011;2243;48.812;9.232;2022-09-09T16:19:46;2.10;;;1.00;;
4460;SDS011;2243;48.812;9.232;2022-09-09T16:22:17;2.60;;;1.70;;
4460;SDS011;2243;48.812;9.232;2022-09-09T16:24:48;3.23;;;1.17;;
4460;SDS011;2243;48.812;9.232;2022-09-09T16:27:19;2.43;;;1.00;;
4460;SDS011;2243;48.812;9.232;2022-09-09T16:29:50;5.30;;;1.30;;
4460;SDS011;2243;48.812;9.232;2022-09-09T16:32:21;3.37;;;1.50;;
4460;SDS011;2243;48.812;9.232;2022-09-09T16:34:52;2.00;;;0.77;;
4460;SDS011;2243;48.812;9.232;2022-09-09T16:37:23;0.90;;;0.60;;
4460;SDS011;2243;48.812;9.232;2022-09-09T16:39:54;3.63;;;0.80;;
4460;SDS011;2243;48.812;9.232;2022-09-09T16:42:25;0.70;;;0.67;;
4460;SDS011;2243;48.812;9.232;2022-09-09T16:44:56;0.73;;;0.60;;
4460;SDS011;2243;48.812;9.232;2022-09-09T16:47:27;1.83;;;0.93;;
4460;SDS011;2243;48.812;9.232;2022-09-09T16:49:58;1.37;;;0.80;;
4460;SDS011;2243;48.812;9.232;2022-09-09T16:52:29;1.90;;;0.83;;
4460;SDS011;2243;48.812;9.232;2022-09-09T16:55:00;1.10;;;1.00;;
4460;SDS011;2243;48.812;9.232;2022-09-09T16:57:31;5.90;;;0.87;;
4460;SDS011;2243;48.812;9.232;2022-09-09T17:00:02;0.80;;;0.70;;
4460;SDS011;2243;48.812;9.232;2022-09-09T17:02:36;2.73;;;0.80;;
4460;SDS011;2243;48.812;9.232;2022-09-09T17:05:07;0.83;;;0.70;;
4460;SDS011;2243;48.812;9.232;2022-09-09T17:07:38;1.03;;;0.60;;
4460;SDS011;2243;48.812;9.232;2022-09-09T17:10:09;0.80;;;0.73;;
4460;SDS011;2243;48.812;9.232;2022-09-09T17:12:39;1.10;;;0.90;;
4460;SDS011;2243;48.812;9.232;2022-09-09T17:15:11;0.80;;;0.70;;
4460;SDS011;2243;48.812;9.232;2022-09-09T17:17:42;1.00;;;0.60;;
4460;SDS011;2243;48.812;9.232;2022-09-09T17:20:15;0.70;;;0.70;;
4460;SDS011;2243;48.812;9.232;2022-09-09T17:22:46;0.90;;;0.90;;
4460;SDS011;2243;48.812;9.232;2022-09-09T17:25:19;1.23;;;1.13;;
4460;SDS011;2243;48.812;9.232;2022-09-09T17:27:52;0.97;;;0.97;;
4460;SDS011;2243;48.812;9.232;2022-09-09T17:30:23;1.20;;;1.10;;
4460;SDS011;2243;48.812;9.232;2022-09-09T17:32:54;1.83;;;1.13;;
4460;SDS011;2243;48.812;9.232;2022-09-09T17:35:25;1.00;;;0.77;;
4460;SDS011;2243;48.812;9.232;2022-09-09T17:37:57;1.27;;;0.90;;
4460;SDS011;2243;48.812;9.232;2022-09-09T17:40:28;1.57;;;1.20;;
4460;SDS011;2243;48.812;9.232;2022-09-09T17:42:59;1.23;;;1.13;;
4460;SDS011;2243;48.812;9.232;2022-09-09T17:45:31;1.47;;;1.17;;
4460;SDS011;2243;48.812;9.232;2022-09-09T17:48:02;1.53;;;1.23;;
4460;SDS011;2243;48.812;9.232;2022-09-09T17:50:34;4.03;;;1.20;;
4460;SDS011;2243;48.812;9.232;2022-09-09T17:53:05;1.03;;;0.93;;
4460;SDS011;2243;48.812;9.232;2022-09-09T17:55:36;1.50;;;1.33;;
4460;SDS011;2243;48.812;9.232;2022-09-09T17:58:06;1.37;;;1.00;;
4460;SDS011;2243;48.812;9.232;2022-09-09T18:00:37;1.53;;;1.13;;
4460;SDS011;2243;48.812;9.232;2022-09-09T18:03:08;2.07;;;1.10;;
4460;SDS011;2243;48.812;9.232;2022-09-09T18:05:39;0.80;;;0.70;;
4460;SDS011;2243;48.812;9.232;2022-09-09T18:08:10;1.07;;;1.07;;
4460;SDS011;2243;48.812;9.232;2022-09-09T18:10:42;1.40;;;1.30;;
4460;SDS011;2243;48.812;9.232;2022-09-09T18:13:24;1.03;;;0.93;;
4460;SDS011;2243;48.812;9.232;2022-09-09T18:15:55;1.77;;;1.07;;
4460;SDS011;2243;48.812;9.232;2022-09-09T18:18:27;1.70;;;1.50;;
4460;SDS011;2243;48.812;9.232;2022-09-09T18:21:00;2.87;;;0.97;;
4460;SDS011;2243;48.812;9.232;2022-09-09T18:23:36;4.20;;;1.27;;
4460;SDS011;2243;48.812;9.232;2022-09-09T18:26:13;2.03;;;1.27;;
4460;SDS011;2243;48.812;9.232;2022-09-09T18:28:50;1.10;;;1.00;;
4460;SDS011;2243;48.812;9.232;2022-09-09T18:31:30;1.83;;;1.37;;
4460;SDS011;2243;48.812;9.232;2022-09-09T18:34:04;1.20;;;1.07;;